sensor_id;sensor_type;location;lat;lon;timestamp;pressure;altitude;pressure_sealevel;temperature;humidity
48874;BME280;66155;46.204;5.220;2024-01-11T00:00:11;99255.97;;;0.84;79.35
48874;BME280;66155;46.204;5.220;2024-01-11T00:05:12;99264.19;;;0.87;79.22
48874;BME280;66155;46.204;5.220;2024-01-11T00:10:13;99264.59;;;0.89;78.90
48874;BME280;66155;46.204;5.220;2024-01-11T00:15:14;99271.63;;;0.90;79.29
48874;BME280;66155;46.204;5.220;2024-01-11T00:20:14;99276.53;;;0.78;80.14
48874;BME280;66155;46.204;5.220;2024-01-11T00:25:15;99263.59;;;0.71;79.92
48874;BME280;66155;46.204;5.220;2024-01-11T00:30:15;99264.31;;;0.65;79.79
48874;BME280;66155;46.204;5.220;2024-01-11T00:35:16;99262.69;;;0.60;79.55
48874;BME280;66155;46.204;5.220;2024-01-11T00:40:16;99270.88;;;0.60;79.70
48874;BME280;66155;46.204;5.220;2024-01-11T00:45:16;99266.88;;;0.54;79.95
48874;BME280;66155;46.204;5.220;2024-01-11T00:50:17;99267.97;;;0.50;80.81
48874;BME280;66155;46.204;5.220;2024-01-11T00:55:17;99264.84;;;0.47;80.74
48874;BME280;66155;46.204;5.220;2024-01-11T01:00:18;99262.91;;;0.48;80.49
48874;BME280;66155;46.204;5.220;2024-01-11T01:05:18;99267.19;;;0.49;80.69
48874;BME280;66155;46.204;5.220;2024-01-11T01:10:19;99259.75;;;0.46;80.76
48874;BME280;66155;46.204;5.220;2024-01-11T01:15:19;99258.97;;;0.45;80.12
48874;BME280;66155;46.204;5.220;2024-01-11T01:20:20;99262.09;;;0.44;79.83
48874;BME280;66155;46.204;5.220;2024-01-11T01:25:20;99268.72;;;0.46;80.06
48874;BME280;66155;46.204;5.220;2024-01-11T01:30:21;99266.88;;;0.54;79.63
48874;BME280;66155;46.204;5.220;2024-01-11T01:35:22;99261.09;;;0.59;79.27
48874;BME280;66155;46.204;5.220;2024-01-11T01:40:22;99263.84;;;0.59;79.41
48874;BME280;66155;46.204;5.220;2024-01-11T01:45:22;99262.25;;;0.58;79.49
48874;BME280;66155;46.204;5.220;2024-01-11T01:50:23;99268.44;;;0.55;80.27
48874;BME280;66155;46.204;5.220;2024-01-11T01:55:25;99270.81;;;0.57;80.05
48874;BME280;66155;46.204;5.220;2024-01-11T02:00:26;99275.47;;;0.56;79.89
48874;BME280;66155;46.204;5.220;2024-01-11T02:05:27;99286.78;;;0.58;79.81
48874;BME280;66155;46.204;5.220;2024-01-11T02:10:29;99284.88;;;0.62;79.58
48874;BME280;66155;46.204;5.220;2024-01-11T02:15:30;99281.38;;;0.62;79.44
48874;BME280;66155;46.204;5.220;2024-01-11T02:20:31;99300.13;;;0.67;79.45
48874;BME280;66155;46.204;5.220;2024-01-11T02:25:32;99305.19;;;0.65;79.83
48874;BME280;66155;46.204;5.220;2024-01-11T02:30:32;99303.22;;;0.65;79.58
48874;BME280;66155;46.204;5.220;2024-01-11T02:35:33;99312.63;;;0.68;79.93
48874;BME280;66155;46.204;5.220;2024-01-11T02:40:34;99315.41;;;0.71;79.90
48874;BME280;66155;46.204;5.220;2024-01-11T02:45:35;99310.06;;;0.82;79.80
48874;BME280;66155;46.204;5.220;2024-01-11T02:50:36;99300.47;;;0.91;80.02
48874;BME280;66155;46.204;5.220;2024-01-11T02:55:36;99307.91;;;0.94;79.78
48874;BME280;66155;46.204;5.220;2024-01-11T03:00:37;99301.00;;;0.74;80.36
48874;BME280;66155;46.204;5.220;2024-01-11T03:05:37;99291.50;;;0.61;80.85
48874;BME280;66155;46.204;5.220;2024-01-11T03:10:38;99305.06;;;0.58;80.44
48874;BME280;66155;46.204;5.220;2024-01-11T03:15:41;99301.06;;;0.48;80.67
48874;BME280;66155;46.204;5.220;2024-01-11T03:20:41;99307.09;;;0.34;81.75
48874;BME280;66155;46.204;5.220;2024-01-11T03:25:42;99300.44;;;0.32;80.87
48874;BME280;66155;46.204;5.220;2024-01-11T03:30:43;99300.50;;;0.35;81.32
48874;BME280;66155;46.204;5.220;2024-01-11T03:35:43;99297.59;;;0.25;81.00
48874;BME280;66155;46.204;5.220;2024-01-11T03:40:44;99292.53;;;0.23;81.50
48874;BME280;66155;46.204;5.220;2024-01-11T03:45:44;99306.50;;;0.22;81.03
48874;BME280;66155;46.204;5.220;2024-01-11T03:50:45;99308.78;;;0.16;81.28
48874;BME280;66155;46.204;5.220;2024-01-11T03:55:45;99308.28;;;0.11;81.59
48874;BME280;66155;46.204;5.220;2024-01-11T04:00:46;99310.78;;;-0.04;81.79
48874;BME280;66155;46.204;5.220;2024-01-11T04:05:46;99315.03;;;-0.06;82.13
48874;BME280;66155;46.204;5.220;2024-01-11T04:10:46;99314.47;;;-0.15;82.17
48874;BME280;66155;46.204;5.220;2024-01-11T04:15:47;99303.97;;;-0.17;81.52
48874;BME280;66155;46.204;5.220;2024-01-11T04:20:47;99302.78;;;-0.16;81.54
48874;BME280;66155;46.204;5.220;2024-01-11T04:25:48;99296.16;;;-0.18;81.97
48874;BME280;66155;46.204;5.220;2024-01-11T04:30:48;99308.69;;;-0.14;81.04
48874;BME280;66155;46.204;5.220;2024-01-11T04:35:49;99311.75;;;-0.15;81.25
48874;BME280;66155;46.204;5.220;2024-01-11T04:40:50;99315.66;;;-0.16;81.31
48874;BME280;66155;46.204;5.220;2024-01-11T04:45:51;99313.22;;;-0.21;82.52
48874;BME280;66155;46.204;5.220;2024-01-11T04:50:51;99308.91;;;-0.22;81.49
48874;BME280;66155;46.204;5.220;2024-01-11T04:55:52;99309.28;;;-0.24;81.22
48874;BME280;66155;46.204;5.220;2024-01-11T05:00:52;99309.72;;;-0.22;81.46
48874;BME280;66155;46.204;5.220;2024-01-11T05:05:52;99296.84;;;-0.25;81.47
48874;BME280;66155;46.204;5.220;2024-01-11T05:10:53;99295.66;;;-0.24;81.61
48874;BME280;66155;46.204;5.220;2024-01-11T05:15:53;99296.84;;;-0.25;81.27
48874;BME280;66155;46.204;5.220;2024-01-11T05:20:54;99303.72;;;-0.31;81.54
48874;BME280;66155;46.204;5.220;2024-01-11T05:25:54;99298.56;;;-0.36;81.74
48874;BME280;66155;46.204;5.220;2024-01-11T05:30:55;99302.44;;;-0.37;81.75
48874;BME280;66155;46.204;5.220;2024-01-11T05:35:55;99307.47;;;-0.39;81.50
48874;BME280;66155;46.204;5.220;2024-01-11T05:40:56;99302.31;;;-0.44;81.53
48874;BME280;66155;46.204;5.220;2024-01-11T05:45:56;99309.34;;;-0.43;82.10
48874;BME280;66155;46.204;5.220;2024-01-11T05:50:56;99309.34;;;-0.43;81.30
48874;BME280;66155;46.204;5.220;2024-01-11T05:55:57;99294.88;;;-0.47;81.53
48874;BME280;66155;46.204;5.220;2024-01-11T06:00:58;99304.63;;;-0.46;81.60
48874;BME280;66155;46.204;5.220;2024-01-11T06:05:58;99316.66;;;-0.47;82.42
48874;BME280;66155;46.204;5.220;2024-01-11T06:10:59;99319.88;;;-0.41;81.99
48874;BME280;66155;46.204;5.220;2024-01-11T06:15:59;99315.34;;;-0.34;81.49
48874;BME280;66155;46.204;5.220;2024-01-11T06:21:00;99331.59;;;-0.15;80.90
48874;BME280;66155;46.204;5.220;2024-01-11T06:26:00;99340.81;;;0.00;80.83
48874;BME280;66155;46.204;5.220;2024-01-11T06:31:00;99341.47;;;0.16;80.74
48874;BME280;66155;46.204;5.220;2024-01-11T06:36:01;99342.34;;;0.24;80.40
48874;BME280;66155;46.204;5.220;2024-01-11T06:41:01;99345.47;;;0.26;80.60
48874;BME280;66155;46.204;5.220;2024-01-11T06:46:06;99337.75;;;0.28;80.35
48874;BME280;66155;46.204;5.220;2024-01-11T06:51:07;99339.78;;;0.34;80.27
48874;BME280;66155;46.204;5.220;2024-01-11T06:56:15;99346.44;;;0.37;80.34
48874;BME280;66155;46.204;5.220;2024-01-11T07:01:16;99343.44;;;0.45;80.51
48874;BME280;66155;46.204;5.220;2024-01-11T07:06:17;99356.47;;;0.56;79.96
48874;BME280;66155;46.204;5.220;2024-01-11T07:11:18;99352.94;;;0.55;79.92
48874;BME280;66155;46.204;5.220;2024-01-11T07:16:18;99355.66;;;0.55;79.93
48874;BME280;66155;46.204;5.220;2024-01-11T07:21:24;99357.91;;;0.50;80.32
48874;BME280;66155;46.204;5.220;2024-01-11T07:26:29;99363.63;;;0.41;80.31
48874;BME280;66155;46.204;5.220;2024-01-11T07:31:30;99363.94;;;0.36;80.47
48874;BME280;66155;46.204;5.220;2024-01-11T07:36:30;99368.97;;;0.34;80.59
48874;BME280;66155;46.204;5.220;2024-01-11T07:41:31;99380.25;;;0.32;80.37
48874;BME280;66155;46.204;5.220;2024-01-11T07:46:32;99388.81;;;0.34;80.20
48874;BME280;66155;46.204;5.220;2024-01-11T07:51:33;99400.50;;;0.35;80.63
48874;BME280;66155;46.204;5.220;2024-01-11T07:56:34;99397.78;;;0.35;80.43
48874;BME280;66155;46.204;5.220;2024-01-11T08:01:35;99411.06;;;0.36;80.73
48874;BME280;66155;46.204;5.220;2024-01-11T08:06:35;99415.38;;;0.41;80.36
48874;BME280;66155;46.204;5.220;2024-01-11T08:11:36;99413.78;;;0.36;80.67
48874;BME280;66155;46.204;5.220;2024-01-11T08:16:36;99419.94;;;0.33;80.48
48874;BME280;66155;46.204;5.220;2024-01-11T08:21:37;99422.66;;;0.33;80.51
48874;BME280;66155;46.204;5.220;2024-01-11T08:26:38;99431.44;;;0.46;80.60
48874;BME280;66155;46.204;5.220;2024-01-11T08:31:38;99427.69;;;0.54;80.25
48874;BME280;66155;46.204;5.220;2024-01-11T08:36:39;99437.44;;;0.55;80.49
48874;BME280;66155;46.204;5.220;2024-01-11T08:41:39;99442.88;;;0.55;80.51
48874;BME280;66155;46.204;5.220;2024-01-11T08:46:40;99440.56;;;0.57;80.51
48874;BME280;66155;46.204;5.220;2024-01-11T08:51:40;99443.00;;;0.62;80.49
48874;BME280;66155;46.204;5.220;2024-01-11T08:56:41;99454.72;;;0.66;80.55
48874;BME280;66155;46.204;5.220;2024-01-11T09:01:41;99464.69;;;0.55;80.20
48874;BME280;66155;46.204;5.220;2024-01-11T09:06:42;99462.06;;;0.62;80.45
48874;BME280;66155;46.204;5.220;2024-01-11T09:11:42;99461.22;;;0.58;80.48
48874;BME280;66155;46.204;5.220;2024-01-11T09:16:43;99462.31;;;0.54;80.29
48874;BME280;66155;46.204;5.220;2024-01-11T09:21:45;99464.25;;;0.53;80.30
48874;BME280;66155;46.204;5.220;2024-01-11T09:26:45;99470.09;;;0.52;80.49
48874;BME280;66155;46.204;5.220;2024-01-11T09:31:46;99467.81;;;0.57;80.43
48874;BME280;66155;46.204;5.220;2024-01-11T09:36:46;99479.72;;;0.68;80.23
48874;BME280;66155;46.204;5.220;2024-01-11T09:41:52;99479.47;;;0.77;80.41
48874;BME280;66155;46.204;5.220;2024-01-11T09:46:59;99480.72;;;0.83;79.99
48874;BME280;66155;46.204;5.220;2024-01-11T09:52:02;99479.72;;;0.94;80.11
48874;BME280;66155;46.204;5.220;2024-01-11T09:57:03;99476.81;;;1.10;80.06
48874;BME280;66155;46.204;5.220;2024-01-11T10:02:08;99487.25;;;1.31;79.83
48874;BME280;66155;46.204;5.220;2024-01-11T10:07:10;99484.34;;;1.47;79.85
48874;BME280;66155;46.204;5.220;2024-01-11T10:12:11;99477.41;;;1.53;79.45
48874;BME280;66155;46.204;5.220;2024-01-11T10:17:11;99498.56;;;1.59;79.62
48874;BME280;66155;46.204;5.220;2024-01-11T10:22:12;99484.91;;;1.59;79.47
48874;BME280;66155;46.204;5.220;2024-01-11T10:27:13;99489.47;;;1.52;79.45
48874;BME280;66155;46.204;5.220;2024-01-11T10:32:14;99492.56;;;1.50;79.76
48874;BME280;66155;46.204;5.220;2024-01-11T10:37:14;99501.50;;;1.47;79.82
48874;BME280;66155;46.204;5.220;2024-01-11T10:42:17;99496.78;;;1.44;79.81
48874;BME280;66155;46.204;5.220;2024-01-11T10:47:21;99489.72;;;1.39;79.92
48874;BME280;66155;46.204;5.220;2024-01-11T10:52:28;99484.63;;;1.38;79.69
48874;BME280;66155;46.204;5.220;2024-01-11T10:57:33;99483.94;;;1.45;79.92
48874;BME280;66155;46.204;5.220;2024-01-11T11:02:34;99480.47;;;1.48;79.78
48874;BME280;66155;46.204;5.220;2024-01-11T11:07:36;99473.38;;;1.43;79.73
48874;BME280;66155;46.204;5.220;2024-01-11T11:12:37;99482.41;;;1.47;79.68
48874;BME280;66155;46.204;5.220;2024-01-11T11:17:40;99477.25;;;1.42;79.58
48874;BME280;66155;46.204;5.220;2024-01-11T11:22:42;99479.09;;;1.34;79.58
48874;BME280;66155;46.204;5.220;2024-01-11T11:27:43;99472.03;;;1.30;79.77
48874;BME280;66155;46.204;5.220;2024-01-11T11:32:44;99474.63;;;1.19;80.04
48874;BME280;66155;46.204;5.220;2024-01-11T11:37:45;99462.03;;;1.11;79.99
48874;BME280;66155;46.204;5.220;2024-01-11T11:42:45;99465.78;;;1.00;80.01
48874;BME280;66155;46.204;5.220;2024-01-11T11:47:46;99467.44;;;0.81;80.43
48874;BME280;66155;46.204;5.220;2024-01-11T11:52:55;99453.69;;;0.74;80.76
48874;BME280;66155;46.204;5.220;2024-01-11T11:57:59;99455.63;;;0.74;80.23
48874;BME280;66155;46.204;5.220;2024-01-11T12:03:01;99464.53;;;0.71;80.20
48874;BME280;66155;46.204;5.220;2024-01-11T12:08:04;99468.41;;;0.70;80.04
48874;BME280;66155;46.204;5.220;2024-01-11T12:13:05;99461.47;;;0.72;79.92
48874;BME280;66155;46.204;5.220;2024-01-11T12:18:07;99460.56;;;0.65;80.12
48874;BME280;66155;46.204;5.220;2024-01-11T12:23:07;99460.03;;;0.56;80.21
48874;BME280;66155;46.204;5.220;2024-01-11T12:28:09;99458.50;;;0.58;80.02
48874;BME280;66155;46.204;5.220;2024-01-11T12:33:10;99457.06;;;0.64;79.80
48874;BME280;66155;46.204;5.220;2024-01-11T12:38:10;99454.28;;;0.61;79.93
48874;BME280;66155;46.204;5.220;2024-01-11T12:43:11;99453.88;;;0.62;79.84
48874;BME280;66155;46.204;5.220;2024-01-11T12:48:11;99455.03;;;0.61;79.89
48874;BME280;66155;46.204;5.220;2024-01-11T12:53:14;99452.16;;;0.51;79.93
48874;BME280;66155;46.204;5.220;2024-01-11T12:58:22;99444.22;;;0.42;79.95
48874;BME280;66155;46.204;5.220;2024-01-11T13:03:22;99446.09;;;0.38;80.25
48874;BME280;66155;46.204;5.220;2024-01-11T13:08:25;99453.06;;;0.35;80.13
48874;BME280;66155;46.204;5.220;2024-01-11T13:13:27;99452.78;;;0.40;80.09
48874;BME280;66155;46.204;5.220;2024-01-11T13:18:28;99466.75;;;0.39;80.01
48874;BME280;66155;46.204;5.220;2024-01-11T13:23:28;99460.47;;;0.35;80.27
48874;BME280;66155;46.204;5.220;2024-01-11T13:28:29;99456.59;;;0.36;80.24
48874;BME280;66155;46.204;5.220;2024-01-11T13:33:29;99458.47;;;0.32;80.33
48874;BME280;66155;46.204;5.220;2024-01-11T13:38:30;99454.66;;;0.36;80.11
48874;BME280;66155;46.204;5.220;2024-01-11T13:43:30;99456.25;;;0.41;79.87
48874;BME280;66155;46.204;5.220;2024-01-11T13:48:32;99460.41;;;0.31;80.01
48874;BME280;66155;46.204;5.220;2024-01-11T13:53:32;99456.44;;;0.29;80.52
48874;BME280;66155;46.204;5.220;2024-01-11T13:58:33;99463.53;;;0.33;80.45
48874;BME280;66155;46.204;5.220;2024-01-11T14:03:33;99455.34;;;0.33;80.55
48874;BME280;66155;46.204;5.220;2024-01-11T14:08:34;99468.75;;;0.42;80.17
48874;BME280;66155;46.204;5.220;2024-01-11T14:13:35;99470.63;;;0.38;80.42
48874;BME280;66155;46.204;5.220;2024-01-11T14:18:35;99481.53;;;0.38;80.14
48874;BME280;66155;46.204;5.220;2024-01-11T14:23:36;99478.06;;;0.41;80.05
48874;BME280;66155;46.204;5.220;2024-01-11T14:28:36;99476.81;;;0.35;80.48
48874;BME280;66155;46.204;5.220;2024-01-11T14:33:42;99492.00;;;0.36;80.63
48874;BME280;66155;46.204;5.220;2024-01-11T14:38:43;99494.59;;;0.52;79.80
48874;BME280;66155;46.204;5.220;2024-01-11T14:43:43;99502.56;;;0.60;79.96
48874;BME280;66155;46.204;5.220;2024-01-11T14:48:43;99509.19;;;0.63;79.84
48874;BME280;66155;46.204;5.220;2024-01-11T14:53:44;99515.00;;;0.61;79.69
48874;BME280;66155;46.204;5.220;2024-01-11T14:58:45;99512.09;;;0.51;79.82
48874;BME280;66155;46.204;5.220;2024-01-11T15:03:45;99518.53;;;0.39;80.32
48874;BME280;66155;46.204;5.220;2024-01-11T15:08:46;99525.97;;;0.42;80.10
48874;BME280;66155;46.204;5.220;2024-01-11T15:13:47;99536.63;;;0.28;81.08
48874;BME280;66155;46.204;5.220;2024-01-11T15:18:47;99539.41;;;0.31;80.76
48874;BME280;66155;46.204;5.220;2024-01-11T15:23:48;99548.31;;;0.28;81.17
48874;BME280;66155;46.204;5.220;2024-01-11T15:28:48;99555.25;;;0.26;80.47
48874;BME280;66155;46.204;5.220;2024-01-11T15:33:48;99555.91;;;0.19;80.56
48874;BME280;66155;46.204;5.220;2024-01-11T15:38:49;99555.53;;;0.21;80.60
48874;BME280;66155;46.204;5.220;2024-01-11T15:43:49;99559.56;;;0.27;80.23
48874;BME280;66155;46.204;5.220;2024-01-11T15:48:50;99574.75;;;0.28;80.56
48874;BME280;66155;46.204;5.220;2024-01-11T15:53:51;99585.50;;;0.21;80.63
48874;BME280;66155;46.204;5.220;2024-01-11T15:58:51;99592.59;;;0.25;81.07
48874;BME280;66155;46.204;5.220;2024-01-11T16:03:52;99585.22;;;0.26;80.64
48874;BME280;66155;46.204;5.220;2024-01-11T16:09:09;99579.63;;;0.38;80.59
48874;BME280;66155;46.204;5.220;2024-01-11T16:14:10;99585.50;;;0.40;80.10
48874;BME280;66155;46.204;5.220;2024-01-11T16:19:10;99590.44;;;0.34;80.17
48874;BME280;66155;46.204;5.220;2024-01-11T16:24:11;99594.19;;;0.26;80.31
48874;BME280;66155;46.204;5.220;2024-01-11T16:29:11;99593.25;;;0.19;80.79
48874;BME280;66155;46.204;5.220;2024-01-11T16:34:11;99593.97;;;0.16;80.81
48874;BME280;66155;46.204;5.220;2024-01-11T16:39:13;99602.00;;;0.09;81.78
48874;BME280;66155;46.204;5.220;2024-01-11T16:44:14;99604.28;;;0.07;81.94
48874;BME280;66155;46.204;5.220;2024-01-11T16:49:14;99605.44;;;0.06;81.61
48874;BME280;66155;46.204;5.220;2024-01-11T16:54:15;99607.22;;;-0.02;81.92
48874;BME280;66155;46.204;5.220;2024-01-11T16:59:15;99606.94;;;0.03;81.73
48874;BME280;66155;46.204;5.220;2024-01-11T17:04:16;99612.31;;;-0.01;81.49
48874;BME280;66155;46.204;5.220;2024-01-11T17:09:16;99604.22;;;0.03;81.47
48874;BME280;66155;46.204;5.220;2024-01-11T17:14:17;99597.63;;;0.04;81.21
48874;BME280;66155;46.204;5.220;2024-01-11T17:19:17;99618.44;;;0.12;80.69
48874;BME280;66155;46.204;5.220;2024-01-11T17:24:17;99613.75;;;0.13;80.74
48874;BME280;66155;46.204;5.220;2024-01-11T17:29:18;99613.47;;;0.18;80.29
48874;BME280;66155;46.204;5.220;2024-01-11T17:34:19;99624.81;;;0.20;81.00
48874;BME280;66155;46.204;5.220;2024-01-11T17:39:19;99622.28;;;0.11;81.48
48874;BME280;66155;46.204;5.220;2024-01-11T17:44:20;99629.09;;;0.02;81.22
48874;BME280;66155;46.204;5.220;2024-01-11T17:49:22;99636.25;;;-0.10;82.49
48874;BME280;66155;46.204;5.220;2024-01-11T17:54:23;99632.13;;;-0.19;82.46
48874;BME280;66155;46.204;5.220;2024-01-11T17:59:26;99639.09;;;-0.22;82.49
48874;BME280;66155;46.204;5.220;2024-01-11T18:04:27;99652.84;;;-0.15;82.32
48874;BME280;66155;46.204;5.220;2024-01-11T18:09:27;99656.44;;;-0.11;81.90
48874;BME280;66155;46.204;5.220;2024-01-11T18:14:28;99666.91;;;-0.13;81.78
48874;BME280;66155;46.204;5.220;2024-01-11T18:19:28;99671.38;;;-0.05;81.56
48874;BME280;66155;46.204;5.220;2024-01-11T18:24:29;99680.81;;;0.02;81.23
48874;BME280;66155;46.204;5.220;2024-01-11T18:29:30;99690.84;;;-0.03;81.24
48874;BME280;66155;46.204;5.220;2024-01-11T18:34:33;99686.84;;;-0.09;81.49
48874;BME280;66155;46.204;5.220;2024-01-11T18:39:34;99689.91;;;-0.10;81.38
48874;BME280;66155;46.204;5.220;2024-01-11T18:44:34;99691.03;;;-0.11;81.41
48874;BME280;66155;46.204;5.220;2024-01-11T18:49:35;99693.34;;;-0.13;81.63
48874;BME280;66155;46.204;5.220;2024-01-11T18:54:37;99693.63;;;-0.18;81.70
48874;BME280;66155;46.204;5.220;2024-01-11T18:59:37;99686.84;;;-0.09;81.18
48874;BME280;66155;46.204;5.220;2024-01-11T19:04:38;99688.84;;;-0.06;81.19
48874;BME280;66155;46.204;5.220;2024-01-11T19:09:38;99684.47;;;-0.10;81.31
48874;BME280;66155;46.204;5.220;2024-01-11T19:14:40;99686.13;;;-0.06;81.10
48874;BME280;66155;46.204;5.220;2024-01-11T19:19:41;99683.47;;;-0.02;81.31
48874;BME280;66155;46.204;5.220;2024-01-11T19:24:41;99690.50;;;-0.01;80.83
48874;BME280;66155;46.204;5.220;2024-01-11T19:29:42;99680.69;;;-0.06;80.91
48874;BME280;66155;46.204;5.220;2024-01-11T19:34:42;99691.91;;;-0.07;81.30
48874;BME280;66155;46.204;5.220;2024-01-11T19:39:43;99680.34;;;-0.04;80.82
48874;BME280;66155;46.204;5.220;2024-01-11T19:44:43;99682.69;;;-0.03;81.13
48874;BME280;66155;46.204;5.220;2024-01-11T19:49:44;99677.31;;;0.01;80.87
48874;BME280;66155;46.204;5.220;2024-01-11T19:54:44;99675.38;;;0.02;80.85
48874;BME280;66155;46.204;5.220;2024-01-11T19:59:46;99691.44;;;0.07;80.88
48874;BME280;66155;46.204;5.220;2024-01-11T20:04:46;99695.47;;;0.13;80.67
48874;BME280;66155;46.204;5.220;2024-01-11T20:09:47;99701.00;;;0.16;80.47
48874;BME280;66155;46.204;5.220;2024-01-11T20:14:48;99699.84;;;0.17;80.62
48874;BME280;66155;46.204;5.220;2024-01-11T20:19:48;99702.75;;;0.24;80.28
48874;BME280;66155;46.204;5.220;2024-01-11T20:24:51;99703.50;;;0.25;80.01
48874;BME280;66155;46.204;5.220;2024-01-11T20:29:51;99704.03;;;0.30;80.14
48874;BME280;66155;46.204;5.220;2024-01-11T20:34:52;99698.66;;;0.34;80.34
48874;BME280;66155;46.204;5.220;2024-01-11T20:39:54;99710.78;;;0.36;79.96
48874;BME280;66155;46.204;5.220;2024-01-11T20:44:55;99712.72;;;0.36;80.09
48874;BME280;66155;46.204;5.220;2024-01-11T20:49:55;99719.03;;;0.40;79.95
48874;BME280;66155;46.204;5.220;2024-01-11T20:54:56;99724.63;;;0.47;80.26
48874;BME280;66155;46.204;5.220;2024-01-11T20:59:56;99725.84;;;0.50;79.95
48874;BME280;66155;46.204;5.220;2024-01-11T21:04:57;99730.94;;;0.51;79.92
48874;BME280;66155;46.204;5.220;2024-01-11T21:09:57;99724.19;;;0.45;80.09
48874;BME280;66155;46.204;5.220;2024-01-11T21:14:58;99728.00;;;0.40;79.95
48874;BME280;66155;46.204;5.220;2024-01-11T21:19:59;99730.72;;;0.40;79.97
48874;BME280;66155;46.204;5.220;2024-01-11T21:24:59;99733.72;;;0.35;80.33
48874;BME280;66155;46.204;5.220;2024-01-11T21:30:00;99731.06;;;0.39;80.29
48874;BME280;66155;46.204;5.220;2024-01-11T21:35:00;99722.97;;;0.42;79.83
48874;BME280;66155;46.204;5.220;2024-01-11T21:40:01;99726.13;;;0.44;79.90
48874;BME280;66155;46.204;5.220;2024-01-11T21:45:01;99711.28;;;0.42;79.55
48874;BME280;66155;46.204;5.220;2024-01-11T21:50:03;99715.94;;;0.41;79.74
48874;BME280;66155;46.204;5.220;2024-01-11T21:55:06;99719.72;;;0.37;79.71
48874;BME280;66155;46.204;5.220;2024-01-11T22:00:07;99716.13;;;0.33;79.59
48874;BME280;66155;46.204;5.220;2024-01-11T22:05:08;99720.09;;;0.35;80.15
48874;BME280;66155;46.204;5.220;2024-01-11T22:10:09;99730.63;;;0.37;79.49
48874;BME280;66155;46.204;5.220;2024-01-11T22:15:09;99743.56;;;0.40;79.61
48874;BME280;66155;46.204;5.220;2024-01-11T22:20:11;99743.56;;;0.40;79.38
48874;BME280;66155;46.204;5.220;2024-01-11T22:25:11;99757.44;;;0.35;79.42
48874;BME280;66155;46.204;5.220;2024-01-11T22:30:12;99747.88;;;0.25;79.74
48874;BME280;66155;46.204;5.220;2024-01-11T22:35:14;99755.38;;;0.28;79.64
48874;BME280;66155;46.204;5.220;2024-01-11T22:40:15;99749.56;;;0.30;79.61
48874;BME280;66155;46.204;5.220;2024-01-11T22:45:17;99741.03;;;0.31;79.38
48874;BME280;66155;46.204;5.220;2024-01-11T22:50:18;99741.91;;;0.35;79.91
48874;BME280;66155;46.204;5.220;2024-01-11T22:55:18;99738.66;;;0.30;79.45
48874;BME280;66155;46.204;5.220;2024-01-11T23:00:19;99742.16;;;0.30;79.64
48874;BME280;66155;46.204;5.220;2024-01-11T23:05:23;99739.03;;;0.28;79.82
48874;BME280;66155;46.204;5.220;2024-01-11T23:10:23;99737.50;;;0.31;79.26
48874;BME280;66155;46.204;5.220;2024-01-11T23:15:23;99732.72;;;0.24;79.46
48874;BME280;66155;46.204;5.220;2024-01-11T23:20:24;99741.75;;;0.28;79.73
48874;BME280;66155;46.204;5.220;2024-01-11T23:25:25;99743.69;;;0.28;79.57
48874;BME280;66155;46.204;5.220;2024-01-11T23:30:25;99742.09;;;0.27;79.32
48874;BME280;66155;46.204;5.220;2024-01-11T23:35:26;99746.41;;;0.28;79.71
48874;BME280;66155;46.204;5.220;2024-01-11T23:40:27;99739.38;;;0.27;79.33
48874;BME280;66155;46.204;5.220;2024-01-11T23:45:27;99740.50;;;0.26;79.34
48874;BME280;66155;46.204;5.220;2024-01-11T23:50:28;99726.53;;;0.27;79.32
48874;BME280;66155;46.204;5.220;2024-01-11T23:55:29;99728.47;;;0.27;79.17
